Time;durP1;ratioP1;P1;durP2;ratioP2;P2;SDS_P1;SDS_P2;PMS_P1;PMS_P2;Temp;Humidity;BMP_temperature;BMP_pressure;BME280_temperature;BME280_humidity;BME280_pressure;Samples;Min_cycle;Max_cycle;Signal;HPM_P1;HPM_P2
2022/12/31 00:02:23;;;;;;;2.22;1.35;;;;;;;12.83;100.00;99837.56;5017059;28;20194;-74
2022/12/31 00:04:49;;;;;;;3.53;1.48;;;;;;;12.87;100.00;99829.16;5018118;28;20222;-75
2022/12/31 00:07:16;;;;;;;3.53;1.77;;;;;;;12.93;100.00;99827.88;5017087;28;20199;-75
2022/12/31 00:09:42;;;;;;;1.80;1.40;;;;;;;12.96;100.00;99834.91;5016562;28;20210;-74
2022/12/31 00:12:09;;;;;;;2.30;1.40;;;;;;;13.03;100.00;99826.34;5017428;28;20210;-74
2022/12/31 00:14:35;;;;;;;2.45;1.63;;;;;;;13.01;100.00;99841.78;5018329;28;20742;-74
2022/12/31 00:17:02;;;;;;;2.72;1.25;;;;;;;13.11;100.00;99824.00;5018445;28;20219;-74
2022/12/31 00:19:30;;;;;;;3.60;1.90;;;;;;;13.20;100.00;99827.94;5018602;28;20574;-74
2022/12/31 00:21:57;;;;;;;2.03;1.20;;;;;;;13.19;100.00;99823.50;5018740;28;20279;-75
2022/12/31 00:24:23;;;;;;;2.60;1.50;;;;;;;13.23;100.00;99824.16;5016295;28;20236;-74
2022/12/31 00:26:50;;;;;;;1.90;1.15;;;;;;;13.27;100.00;99834.69;5016763;28;20553;-75
2022/12/31 00:29:16;;;;;;;1.83;1.23;;;;;;;13.31;100.00;99821.84;4997906;28;20206;-74
2022/12/31 00:31:43;;;;;;;1.85;1.08;;;;;;;13.37;100.00;99832.28;5015889;28;20815;-74
2022/12/31 00:34:09;;;;;;;2.42;1.95;;;;;;;13.41;100.00;99827.50;5017052;28;20229;-74
2022/12/31 00:36:41;;;;;;;1.92;1.20;;;;;;;13.45;100.00;99826.34;5016834;28;20225;-74
2022/12/31 00:39:10;;;;;;;2.58;1.30;;;;;;;13.46;100.00;99823.56;5018144;28;20206;-75
2022/12/31 00:41:38;;;;;;;2.15;1.23;;;;;;;13.53;100.00;99832.13;5017822;28;20207;-75
2022/12/31 00:44:04;;;;;;;1.55;1.10;;;;;;;13.55;100.00;99828.34;5020142;28;20657;-74
2022/12/31 00:46:31;;;;;;;1.88;1.17;;;;;;;13.58;100.00;99829.97;5019481;28;20672;-75
2022/12/31 00:48:58;;;;;;;1.60;1.15;;;;;;;13.61;100.00;99818.94;5017836;28;20199;-75
2022/12/31 00:51:26;;;;;;;5.25;1.30;;;;;;;13.55;100.00;99819.38;5020409;28;20596;-75
2022/12/31 00:53:54;;;;;;;4.60;1.48;;;;;;;13.54;100.00;99837.44;5020556;28;20677;-72
2022/12/31 00:56:22;;;;;;;2.30;1.20;;;;;;;13.56;100.00;99832.78;5016910;28;20214;-71
2022/12/31 00:58:50;;;;;;;1.75;1.13;;;;;;;13.53;100.00;99837.53;5015215;28;20277;-73
2022/12/31 01:01:19;;;;;;;1.65;1.10;;;;;;;13.53;100.00;99842.94;5015585;28;20222;-73
2022/12/31 01:03:47;;;;;;;2.42;1.30;;;;;;;13.61;100.00;99850.53;5015394;28;20510;-74
2022/12/31 01:06:13;;;;;;;2.22;1.10;;;;;;;13.63;100.00;99843.19;5020083;28;20225;-71
2022/12/31 01:08:40;;;;;;;2.45;1.10;;;;;;;13.59;100.00;99845.25;5031278;28;20282;-71
2022/12/31 01:11:21;;;;;;;2.10;1.00;;;;;;;13.61;100.00;99847.84;5032306;28;20203;-71
2022/12/31 01:13:49;;;;;;;1.70;1.00;;;;;;;13.61;100.00;99843.28;5031898;28;20227;-73
2022/12/31 01:16:17;;;;;;;1.90;1.00;;;;;;;13.71;100.00;99862.50;5031620;28;20292;-72
2022/12/31 01:18:43;;;;;;;1.70;1.08;;;;;;;13.71;100.00;99854.38;5029991;28;20594;-71
2022/12/31 01:21:11;;;;;;;2.15;1.55;;;;;;;13.81;100.00;99850.06;5030819;28;20244;-72
2022/12/31 01:23:38;;;;;;;1.60;1.10;;;;;;;13.82;100.00;99864.50;5025857;28;20301;-73
2022/12/31 01:26:06;;;;;;;1.75;0.90;;;;;;;13.85;100.00;99869.69;5015894;28;20199;-72
2022/12/31 01:28:35;;;;;;;1.60;0.80;;;;;;;13.90;100.00;99862.13;5014841;28;20596;-72
2022/12/31 01:31:04;;;;;;;1.70;1.05;;;;;;;13.95;100.00;99870.78;5015567;28;20209;-73
2022/12/31 01:33:30;;;;;;;1.40;0.80;;;;;;;14.01;100.00;99864.09;5004577;28;20199;-72
2022/12/31 01:36:02;;;;;;;1.75;1.05;;;;;;;14.03;100.00;99851.31;5015720;28;20226;-73
2022/12/31 01:38:28;;;;;;;1.95;1.20;;;;;;;14.05;100.00;99855.66;5015506;28;20191;-73
2022/12/31 01:40:55;;;;;;;1.30;0.80;;;;;;;14.06;100.00;99845.69;5016425;28;20225;-71
2022/12/31 01:43:21;;;;;;;2.13;1.25;;;;;;;14.15;100.00;99845.91;5016711;28;20207;-72
2022/12/31 01:45:52;;;;;;;1.77;1.13;;;;;;;14.19;100.00;99842.03;5017002;28;20203;-74
2022/12/31 01:48:24;;;;;;;1.50;0.95;;;;;;;14.14;100.00;99843.34;5016872;28;20554;-73
2022/12/31 01:50:52;;;;;;;2.47;0.95;;;;;;;14.19;100.00;99823.06;5018339;28;20650;-72
2022/12/31 01:53:19;;;;;;;1.55;0.80;;;;;;;14.23;100.00;99845.41;5018230;28;20211;-72
2022/12/31 01:55:49;;;;;;;2.15;1.00;;;;;;;14.23;100.00;99837.28;5015827;28;20723;-72
2022/12/31 01:58:18;;;;;;;1.75;1.00;;;;;;;14.20;100.00;99845.63;5013149;28;20584;-73
2022/12/31 02:00:46;;;;;;;1.50;0.88;;;;;;;14.23;100.00;99834.56;5013548;28;20206;-73
2022/12/31 02:03:14;;;;;;;1.63;1.17;;;;;;;14.19;100.00;99831.19;5014114;28;20199;-74
2022/12/31 02:05:48;;;;;;;1.80;1.20;;;;;;;14.13;100.00;99849.72;5018761;28;20218;-72
2022/12/31 02:08:14;;;;;;;1.77;0.95;;;;;;;14.14;100.00;99841.50;5000328;28;20195;-72
2022/12/31 02:10:41;;;;;;;2.20;1.45;;;;;;;14.17;100.00;99840.41;4997633;28;20209;-73
2022/12/31 02:13:08;;;;;;;1.90;1.30;;;;;;;14.13;100.00;99858.72;4995334;28;20294;-73
2022/12/31 02:15:54;;;;;;;1.95;1.10;;;;;;;14.11;100.00;99844.41;5004042;28;20544;-72
2022/12/31 02:18:30;;;;;;;2.00;1.02;;;;;;;14.12;100.00;99839.88;5012837;28;20186;-73
2022/12/31 02:21:36;;;;;;;2.13;0.80;;;;;;;14.19;100.00;99838.47;5019104;28;20202;-72
2022/12/31 02:24:48;;;;;;;2.08;1.10;;;;;;;14.19;100.00;99835.75;5021174;28;20222;-73
2022/12/31 02:27:28;;;;;;;2.30;1.08;;;;;;;14.25;100.00;99834.47;5021352;28;20297;-74
2022/12/31 02:30:10;;;;;;;2.40;1.30;;;;;;;14.21;100.00;99822.13;5020416;28;20286;-72
2022/12/31 02:33:00;;;;;;;3.10;1.20;;;;;;;14.28;100.00;99829.69;5018954;28;20195;-74
2022/12/31 02:35:30;;;;;;;2.78;1.55;;;;;;;14.28;100.00;99834.25;5020387;28;20222;-78
2022/12/31 02:38:02;;;;;;;2.60;1.23;;;;;;;14.35;100.00;99835.56;5015603;28;20205;-73
2022/12/31 02:40:29;;;;;;;1.88;1.30;;;;;;;14.47;100.00;99872.63;5019377;28;20190;-73
2022/12/31 02:42:56;;;;;;;1.50;0.90;;;;;;;14.58;100.00;99820.41;5015342;28;20203;-72
2022/12/31 02:45:29;;;;;;;2.30;1.40;;;;;;;14.58;100.00;99832.13;5000726;28;20226;-72
2022/12/31 02:48:09;;;;;;;3.28;1.38;;;;;;;14.59;100.00;99843.84;5000152;28;20191;-74
2022/12/31 02:50:54;;;;;;;1.80;1.10;;;;;;;14.57;100.00;99832.25;5000146;28;20821;-73
2022/12/31 02:53:30;;;;;;;2.28;1.35;;;;;;;14.63;100.00;99839.94;5000176;28;20641;-73
2022/12/31 02:56:03;;;;;;;2.95;1.30;;;;;;;14.69;100.00;99842.19;5011003;28;20706;-72
2022/12/31 03:06:55;;;;;;;2.10;1.35;;;;;;;14.71;100.00;99848.38;5019377;28;20312;-72
2022/12/31 03:09:21;;;;;;;1.92;1.25;;;;;;;14.68;100.00;99864.00;5018921;28;20209;-70
2022/12/31 03:14:32;;;;;;;1.75;1.15;;;;;;;14.70;100.00;99862.91;5022979;28;20241;-72
2022/12/31 03:17:00;;;;;;;5.05;1.45;;;;;;;14.68;100.00;99869.41;5024334;28;20223;-72
2022/12/31 03:22:27;;;;;;;3.03;1.25;;;;;;;14.65;100.00;99875.91;5020371;28;20205;-74
2022/12/31 03:27:38;;;;;;;2.28;1.40;;;;;;;14.67;100.00;99864.97;5018794;28;20622;-72
2022/12/31 03:30:06;;;;;;;2.55;1.30;;;;;;;14.67;100.00;99846.00;5019319;28;20208;-72
2022/12/31 03:32:33;;;;;;;4.47;1.73;;;;;;;14.71;100.00;99870.06;5015638;28;20286;-73
2022/12/31 03:35:00;;;;;;;6.35;1.58;;;;;;;14.72;100.00;99865.50;5017431;28;20560;-72
2022/12/31 03:37:26;;;;;;;2.00;1.30;;;;;;;14.76;100.00;99864.31;5018226;28;20234;-72
2022/12/31 03:39:53;;;;;;;2.97;1.20;;;;;;;14.77;100.00;99868.75;5018544;28;20213;-73
2022/12/31 03:42:19;;;;;;;3.00;1.60;;;;;;;14.75;100.00;99866.16;5017568;28;20209;-72
2022/12/31 03:44:46;;;;;;;2.35;1.38;;;;;;;14.75;100.00;99877.00;5016564;28;20705;-72
2022/12/31 03:47:12;;;;;;;1.67;1.10;;;;;;;14.79;100.00;99910.19;5016187;28;20209;-71
2022/12/31 03:49:40;;;;;;;2.10;1.15;;;;;;;14.82;100.00;99887.41;5014726;28;20191;-72
2022/12/31 03:52:07;;;;;;;3.00;1.50;;;;;;;14.81;100.00;99881.09;5017469;28;20578;-72
2022/12/31 03:54:34;;;;;;;2.05;1.52;;;;;;;14.79;100.00;99886.66;5014640;28;20262;-73
2022/12/31 03:57:01;;;;;;;2.10;1.20;;;;;;;14.79;100.00;99881.22;4995601;28;20223;-72
2022/12/31 03:59:27;;;;;;;3.08;1.92;;;;;;;14.79;100.00;99883.09;4995415;28;20211;-73
2022/12/31 04:01:54;;;;;;;1.90;1.40;;;;;;;14.83;100.00;99872.88;4996263;28;20207;-73
2022/12/31 04:04:20;;;;;;;2.10;1.30;;;;;;;14.80;100.00;99895.66;4996166;28;20234;-73
2022/12/31 04:06:48;;;;;;;2.60;1.20;;;;;;;14.74;100.00;99901.50;5004358;28;20191;-73
2022/12/31 04:09:15;;;;;;;2.10;1.33;;;;;;;14.69;100.00;99912.66;5013293;28;20198;-72
2022/12/31 04:11:41;;;;;;;1.65;1.23;;;;;;;14.66;100.00;99902.03;5015992;28;20202;-72
2022/12/31 04:14:08;;;;;;;2.30;1.67;;;;;;;14.68;100.00;99915.50;5015116;28;20238;-74
2022/12/31 04:16:35;;;;;;;2.67;1.50;;;;;;;14.66;100.00;99912.03;5014800;28;20337;-72
2022/12/31 04:19:01;;;;;;;3.95;1.60;;;;;;;14.72;100.00;99927.84;5014583;28;20199;-72
2022/12/31 04:21:28;;;;;;;2.53;1.20;;;;;;;14.75;100.00;99914.94;5015526;28;20203;-73
2022/12/31 04:23:56;;;;;;;2.45;1.45;;;;;;;14.76;100.00;99926.66;5012343;28;20223;-73
2022/12/31 04:26:22;;;;;;;3.85;1.27;;;;;;;14.81;100.00;99921.75;5013398;28;20201;-72
2022/12/31 04:28:49;;;;;;;2.67;1.52;;;;;;;14.83;100.00;99924.38;5014641;28;20206;-72
2022/12/31 04:31:15;;;;;;;2.10;1.67;;;;;;;14.82;100.00;99918.09;5001614;28;20598;-73
2022/12/31 04:33:42;;;;;;;1.55;1.30;;;;;;;14.82;100.00;99922.66;4995087;28;20254;-73
2022/12/31 04:36:09;;;;;;;5.80;1.50;;;;;;;14.90;100.00;99918.44;4996350;28;20214;-73
2022/12/31 04:38:35;;;;;;;5.65;1.60;;;;;;;14.92;100.00;99924.56;5000216;28;20209;-72
2022/12/31 04:41:19;;;;;;;2.53;1.55;;;;;;;14.92;100.00;99919.16;4999392;28;20203;-73
2022/12/31 04:43:48;;;;;;;5.25;1.83;;;;;;;14.93;100.00;99915.50;5010529;28;20218;-73
2022/12/31 04:46:15;;;;;;;1.80;1.40;;;;;;;14.97;100.00;99919.72;5014420;28;20214;-72
2022/12/31 04:48:42;;;;;;;4.03;1.60;;;;;;;14.96;100.00;99912.53;5013691;28;20202;-71
2022/12/31 04:51:09;;;;;;;3.28;1.73;;;;;;;14.98;100.00;99905.16;5015400;28;20207;-72
2022/12/31 04:53:36;;;;;;;2.95;1.40;;;;;;;15.07;100.00;99906.34;5015294;28;20212;-71
2022/12/31 04:56:06;;;;;;;3.72;2.95;;;;;;;15.00;100.00;99902.34;5014538;28;20190;-71
2022/12/31 04:58:32;;;;;;;1.55;1.15;;;;;;;15.00;100.00;99892.38;5013309;28;20676;-72
2022/12/31 05:00:59;;;;;;;2.92;1.52;;;;;;;15.00;100.00;99903.22;5013780;28;20699;-72
2022/12/31 05:03:26;;;;;;;2.00;1.40;;;;;;;15.01;100.00;99909.50;5013941;28;20229;-70
2022/12/31 05:05:53;;;;;;;2.42;1.58;;;;;;;15.07;100.00;99919.91;5013496;28;20570;-72
2022/12/31 05:08:20;;;;;;;3.35;1.75;;;;;;;15.10;100.00;99925.13;5012987;28;20226;-71
2022/12/31 05:10:48;;;;;;;2.30;1.60;;;;;;;15.14;100.00;99928.47;5013382;28;20214;-72
2022/12/31 05:13:16;;;;;;;3.00;1.35;;;;;;;15.21;100.00;99930.63;5009364;28;20199;-72
2022/12/31 05:15:43;;;;;;;2.15;1.50;;;;;;;15.26;100.00;99935.72;5013509;28;20223;-72
2022/12/31 05:18:09;;;;;;;2.03;1.30;;;;;;;15.31;100.00;99943.53;5014553;28;20331;-71
2022/12/31 05:20:36;;;;;;;3.90;1.60;;;;;;;15.37;100.00;99951.22;5014091;28;20224;-72
2022/12/31 05:23:02;;;;;;;1.83;1.17;;;;;;;15.39;100.00;99933.00;5013438;28;20199;-72
2022/12/31 05:25:29;;;;;;;2.88;1.20;;;;;;;15.35;100.00;99942.34;5005047;28;20222;-71
2022/12/31 05:27:55;;;;;;;2.55;1.50;;;;;;;15.39;100.00;99935.72;5016594;28;20214;-72
2022/12/31 05:30:24;;;;;;;2.03;1.40;;;;;;;15.44;100.00;99952.50;5016966;28;20570;-74
2022/12/31 05:32:51;;;;;;;3.40;1.23;;;;;;;15.50;100.00;99940.38;5016796;28;20208;-71
2022/12/31 05:35:17;;;;;;;2.97;1.70;;;;;;;15.52;100.00;99946.53;5013549;28;20226;-71
2022/12/31 05:37:44;;;;;;;2.60;1.35;;;;;;;15.51;100.00;99936.66;5012527;28;20226;-73
2022/12/31 05:40:11;;;;;;;2.58;1.50;;;;;;;15.50;100.00;99956.66;5011800;28;20571;-73
2022/12/31 05:42:38;;;;;;;2.25;1.52;;;;;;;15.48;100.00;99932.31;5012726;28;20233;-73
2022/12/31 05:45:06;;;;;;;2.47;1.40;;;;;;;15.50;100.00;99922.22;5012488;28;20589;-72
2022/12/31 05:47:34;;;;;;;2.35;1.30;;;;;;;15.48;100.00;99926.91;5012557;28;20668;-72
2022/12/31 05:50:00;;;;;;;2.00;1.17;;;;;;;15.49;100.00;99942.22;5013133;28;20206;-71
2022/12/31 05:52:27;;;;;;;3.65;1.30;;;;;;;15.45;100.00;99937.97;5013474;28;20239;-71
2022/12/31 05:54:53;;;;;;;2.67;1.42;;;;;;;15.39;100.00;99936.56;5012893;28;20280;-71
2022/12/31 05:57:20;;;;;;;2.47;1.20;;;;;;;15.41;100.00;99937.31;5012868;28;20229;-71
2022/12/31 05:59:46;;;;;;;2.17;1.23;;;;;;;15.43;100.00;99948.09;5012523;28;20486;-72
2022/12/31 06:02:13;;;;;;;4.80;2.00;;;;;;;15.33;100.00;99939.75;5013275;28;20209;-71
2022/12/31 06:04:41;;;;;;;1.90;1.40;;;;;;;15.34;100.00;99944.19;5013454;28;20225;-71
2022/12/31 06:07:07;;;;;;;1.80;1.20;;;;;;;15.37;100.00;99957.53;5012499;28;20183;-71
2022/12/31 06:09:34;;;;;;;1.50;0.93;;;;;;;15.43;100.00;99958.94;5011184;28;20199;-72
2022/12/31 06:12:00;;;;;;;2.78;1.50;;;;;;;15.43;100.00;99967.94;5012617;28;20216;-72
2022/12/31 06:14:27;;;;;;;2.55;1.50;;;;;;;15.48;100.00;99972.16;5012993;28;20317;-74
2022/12/31 06:16:53;;;;;;;3.88;1.90;;;;;;;15.48;100.00;99981.16;5013332;28;20226;-73
2022/12/31 06:19:20;;;;;;;3.05;1.80;;;;;;;15.53;100.00;99976.28;5012446;28;20209;-71
2022/12/31 06:21:48;;;;;;;4.30;1.52;;;;;;;15.56;100.00;99983.34;5012751;28;20199;-71
2022/12/31 06:24:14;;;;;;;2.03;1.40;;;;;;;15.57;100.00;99976.94;5013284;28;20222;-72
2022/12/31 06:26:41;;;;;;;1.95;1.45;;;;;;;15.59;100.00;99986.69;5016887;28;20198;-73
2022/12/31 06:29:07;;;;;;;3.85;1.30;;;;;;;15.58;100.00;99984.97;5013833;28;20208;-72
2022/12/31 06:31:34;;;;;;;2.75;1.30;;;;;;;15.61;100.00;99986.59;5013213;28;20206;-72
2022/12/31 06:34:01;;;;;;;2.38;1.50;;;;;;;15.60;100.00;99992.97;5012322;28;20219;-72
2022/12/31 06:36:27;;;;;;;1.63;1.05;;;;;;;15.63;100.00;99998.19;5013049;28;20289;-72
2022/12/31 06:38:55;;;;;;;1.60;1.08;;;;;;;15.70;100.00;100009.47;5011690;28;20222;-72
2022/12/31 06:41:22;;;;;;;2.22;1.30;;;;;;;15.73;100.00;100007.41;5012489;28;20221;-71
2022/12/31 06:43:48;;;;;;;2.28;1.20;;;;;;;15.73;100.00;100015.56;5013315;28;20222;-72
2022/12/31 06:46:17;;;;;;;1.80;1.23;;;;;;;15.69;100.00;100029.44;5014020;28;20195;-73
2022/12/31 06:48:45;;;;;;;3.65;3.08;;;;;;;15.76;100.00;100018.06;5011851;28;20202;-72
2022/12/31 06:51:13;;;;;;;3.58;1.70;;;;;;;15.80;100.00;100022.28;5012255;28;20199;-72
2022/12/31 06:53:40;;;;;;;2.42;1.58;;;;;;;15.78;100.00;100012.50;5028639;23;20239;-79
2022/12/31 06:56:13;;;;;;;2.40;1.30;;;;;;;15.76;100.00;100014.47;5042231;28;20213;-72
2022/12/31 06:58:40;;;;;;;4.45;1.70;;;;;;;15.78;100.00;100012.50;5041305;28;20206;-75
2022/12/31 07:01:27;;;;;;;2.58;1.45;;;;;;;15.75;100.00;100010.91;5046517;28;20261;-75
2022/12/31 07:04:00;;;;;;;1.70;1.30;;;;;;;15.77;100.00;100002.66;5060083;28;20233;-77
2022/12/31 07:06:33;;;;;;;2.88;1.40;;;;;;;15.75;100.00;99996.47;5062662;28;20208;-74
2022/12/31 07:09:08;;;;;;;3.15;1.35;;;;;;;15.77;100.00;100005.38;5065762;28;20193;-74
2022/12/31 07:11:46;;;;;;;3.63;1.70;;;;;;;15.79;100.00;100008.84;5066951;28;20207;-74
2022/12/31 07:14:27;;;;;;;2.28;1.30;;;;;;;15.82;100.00;100019.47;5049880;28;20721;-76
2022/12/31 07:17:03;;;;;;;3.58;1.45;;;;;;;15.84;100.00;100023.78;5024782;28;20182;-75
2022/12/31 07:19:42;;;;;;;2.10;1.52;;;;;;;15.87;100.00;100025.41;5029269;28;20200;-78
2022/12/31 07:22:13;;;;;;;2.40;1.20;;;;;;;15.88;100.00;100007.28;5037358;28;20273;-76
2022/12/31 07:24:40;;;;;;;2.05;1.40;;;;;;;15.89;100.00;100012.59;5046986;28;20285;-76
2022/12/31 07:27:25;;;;;;;1.60;1.10;;;;;;;15.90;100.00;100019.78;5047465;28;20236;-75
2022/12/31 07:30:02;;;;;;;2.42;1.50;;;;;;;15.96;100.00;100026.59;5046336;28;20209;-71
2022/12/31 07:32:41;;;;;;;2.97;1.50;;;;;;;16.01;100.00;100029.84;5045112;28;20188;-69
2022/12/31 07:35:17;;;;;;;15.25;12.10;;;;;;;16.09;100.00;100032.84;5046127;28;20222;-75
2022/12/31 07:37:51;;;;;;;4.70;3.30;;;;;;;16.10;100.00;100037.31;5043741;28;20292;-72
2022/12/31 07:40:23;;;;;;;3.38;1.75;;;;;;;16.04;100.00;100048.63;5044727;28;20618;-73
2022/12/31 07:43:04;;;;;;;3.55;1.40;;;;;;;15.98;100.00;100028.22;5043651;28;20190;-74
2022/12/31 07:45:41;;;;;;;6.50;1.80;;;;;;;15.92;100.00;100033.22;5041062;28;20218;-74
2022/12/31 07:48:21;;;;;;;3.22;2.15;;;;;;;15.89;100.00;100042.47;5041221;28;20182;-76
2022/12/31 07:50:48;;;;;;;3.83;1.50;;;;;;;15.89;100.00;100049.75;5042044;28;20617;-77
2022/12/31 07:53:15;;;;;;;3.40;1.70;;;;;;;15.85;100.00;100051.81;5043013;28;20289;-77
2022/12/31 07:55:41;;;;;;;3.10;1.30;;;;;;;15.83;100.00;100049.22;5042551;28;20238;-76
2022/12/31 07:58:19;;;;;;;2.00;1.35;;;;;;;15.82;100.00;100055.63;5040595;28;20313;-77
2022/12/31 08:00:46;;;;;;;2.13;1.23;;;;;;;15.82;100.00;100054.75;5040499;28;20192;-74
2022/12/31 08:03:24;;;;;;;2.35;1.60;;;;;;;15.79;100.00;100077.56;5039979;28;20198;-77
2022/12/31 08:05:58;;;;;;;2.65;1.50;;;;;;;15.79;100.00;100085.72;5040584;28;20198;-75
2022/12/31 08:08:35;;;;;;;3.05;1.73;;;;;;;15.79;100.00;100074.88;5039230;28;20245;-76
2022/12/31 08:11:13;;;;;;;2.45;1.63;;;;;;;15.76;100.00;100085.97;5023060;28;20241;-78
2022/12/31 08:13:42;;;;;;;4.05;1.30;;;;;;;15.75;100.00;100083.34;5037835;28;20190;-75
2022/12/31 08:16:11;;;;;;;2.83;1.75;;;;;;;15.72;100.00;100089.88;5022984;28;20655;-74
2022/12/31 08:18:38;;;;;;;3.17;1.80;;;;;;;15.70;100.00;100089.06;5017709;28;20237;-75
2022/12/31 08:21:16;;;;;;;3.35;2.15;;;;;;;15.75;100.00;100091.47;5017127;28;20209;-72
2022/12/31 08:23:50;;;;;;;3.58;2.10;;;;;;;15.75;100.00;100108.63;5034651;28;20198;-76
2022/12/31 08:26:29;;;;;;;5.32;1.95;;;;;;;15.74;100.00;100119.63;5037424;28;20277;-74
2022/12/31 08:29:13;;;;;;;4.57;1.90;;;;;;;15.75;100.00;100118.63;5037197;28;20208;-74
2022/12/31 08:31:48;;;;;;;3.70;1.80;;;;;;;15.70;100.00;100109.91;5042880;28;20205;-75
2022/12/31 08:34:26;;;;;;;5.30;3.28;;;;;;;15.75;100.00;100099.63;5044584;28;20218;-73
2022/12/31 08:36:59;;;;;;;2.85;1.75;;;;;;;15.75;100.00;100111.34;5045260;28;20229;-75
2022/12/31 08:39:41;;;;;;;2.40;1.80;;;;;;;15.73;100.00;100104.31;5044130;28;20269;-74
2022/12/31 08:42:21;;;;;;;3.03;1.83;;;;;;;15.72;100.00;100122.44;5045751;28;20204;-72
2022/12/31 08:44:59;;;;;;;3.85;1.92;;;;;;;15.68;100.00;100107.31;5045002;28;20217;-74
2022/12/31 08:47:37;;;;;;;71.70;49.95;;;;;;;15.82;100.00;100111.78;5043487;28;20202;-71
2022/12/31 08:50:05;;;;;;;11.10;7.10;;;;;;;15.85;100.00;100116.97;5043045;28;20213;-75
2022/12/31 08:52:32;;;;;;;5.70;1.85;;;;;;;15.74;100.00;100116.91;5041904;28;21011;-75
2022/12/31 08:55:00;;;;;;;2.58;1.83;;;;;;;15.68;100.00;100107.31;5040743;28;20281;-72
2022/12/31 08:57:33;;;;;;;3.10;1.90;;;;;;;15.70;100.00;100108.06;5048550;28;20237;-71
2022/12/31 09:00:06;;;;;;;4.03;1.70;;;;;;;15.70;100.00;100102.63;5049481;28;20660;-73
2022/12/31 09:03:16;;;;;;;2.92;2.03;;;;;;;15.72;100.00;100111.59;5049673;28;20213;-73
2022/12/31 09:05:57;;;;;;;3.20;2.03;;;;;;;15.69;100.00;100124.47;4982603;28;20212;-75
2022/12/31 09:08:30;;;;;;;3.65;1.90;;;;;;;15.73;100.00;100120.59;4974125;28;20275;-75
2022/12/31 09:11:05;;;;;;;3.05;1.85;;;;;;;15.73;100.00;100115.16;4964967;29;20212;-74
2022/12/31 09:13:43;;;;;;;3.72;1.90;;;;;;;15.76;100.00;100117.63;4967580;29;20263;-76
2022/12/31 09:16:17;;;;;;;2.70;1.90;;;;;;;15.81;100.00;100118.19;4973630;28;20291;-76
2022/12/31 09:18:44;;;;;;;2.70;1.83;;;;;;;15.82;100.00;100125.34;4976315;28;20214;-77
2022/12/31 09:21:13;;;;;;;4.82;2.05;;;;;;;15.81;100.00;100118.19;4976113;28;20263;-74
2022/12/31 09:23:41;;;;;;;3.47;2.47;;;;;;;15.86;100.00;100124.16;4976680;28;20240;-76
2022/12/31 09:26:19;;;;;;;2.90;1.80;;;;;;;15.90;100.00;100120.25;4966876;29;20203;-76
2022/12/31 09:28:56;;;;;;;2.50;1.67;;;;;;;15.96;100.00;100133.38;4961096;28;20193;-76
2022/12/31 09:31:33;;;;;;;2.00;1.60;;;;;;;15.97;100.00;100137.84;4960726;28;20205;-76
2022/12/31 09:34:06;;;;;;;5.32;2.35;;;;;;;16.02;100.00;100138.38;4960201;28;20216;-73
2022/12/31 09:36:41;;;;;;;5.65;2.30;;;;;;;16.03;100.00;100145.56;4960570;29;20232;-75
2022/12/31 09:39:14;;;;;;;3.28;2.28;;;;;;;16.04;100.00;100160.00;4959359;28;20212;-75
2022/12/31 09:42:05;;;;;;;2.75;1.70;;;;;;;16.02;100.00;100156.53;4974933;28;20217;-69
2022/12/31 09:44:54;;;;;;;14.98;12.05;;;;;;;16.30;100.00;100159.94;5035149;28;20252;-71
2022/12/31 09:47:44;;;;;;;2.67;2.08;;;;;;;16.33;100.00;100174.19;5035055;28;20639;-74
2022/12/31 09:50:49;;;;;;;2.60;1.92;;;;;;;16.21;100.00;100161.47;5036934;28;20201;-74
2022/12/31 09:53:40;;;;;;;6.72;1.60;;;;;;;16.30;100.00;100154.50;5037495;28;20261;-75
2022/12/31 09:56:15;;;;;;;3.10;1.60;;;;;;;16.43;100.00;100142.63;5037171;28;20210;-78
2022/12/31 09:58:49;;;;;;;2.85;2.13;;;;;;;16.55;100.00;100151.75;5035990;28;20231;-70
2022/12/31 10:01:30;;;;;;;22.08;16.77;;;;;;;16.79;100.00;100150.88;5034574;28;20659;-71
2022/12/31 10:04:24;;;;;;;4.85;3.15;;;;;;;17.26;100.00;100150.00;5035461;28;20677;-71
2022/12/31 10:07:04;;;;;;;2.65;2.15;;;;;;;17.45;100.00;100156.72;5014732;28;20206;-70
2022/12/31 10:09:42;;;;;;;4.90;1.92;;;;;;;17.55;100.00;100176.81;5028740;28;20201;-73
2022/12/31 10:12:45;;;;;;;6.40;2.17;;;;;;;17.48;100.00;100173.72;5038914;28;20204;-75
2022/12/31 10:15:34;;;;;;;3.13;2.00;;;;;;;17.69;100.00;100173.88;5038327;28;20221;-75
2022/12/31 10:18:17;;;;;;;3.67;1.70;;;;;;;17.49;100.00;100152.78;5034958;28;20214;-74
2022/12/31 10:21:02;;;;;;;3.75;1.80;;;;;;;17.35;100.00;100169.34;5040017;28;20257;-73
2022/12/31 10:24:04;;;;;;;2.50;1.38;;;;;;;17.44;100.00;100171.34;5041909;28;20182;-72
2022/12/31 10:26:52;;;;;;;3.15;1.80;;;;;;;17.46;100.00;100175.69;5024945;28;20202;-73
2022/12/31 10:29:30;;;;;;;3.90;1.83;;;;;;;17.62;100.00;100166.31;5022162;28;20402;-72
2022/12/31 10:32:11;;;;;;;2.58;1.50;;;;;;;17.65;100.00;100172.38;5022037;28;20295;-71
2022/12/31 10:34:51;;;;;;;2.40;1.75;;;;;;;17.66;100.00;100171.41;5022578;28;20226;-71
2022/12/31 10:37:22;;;;;;;4.78;2.08;;;;;;;17.51;100.00;100172.59;5026384;28;20189;-73
2022/12/31 10:40:00;;;;;;;5.97;1.90;;;;;;;17.51;100.00;100156.25;5038508;28;20221;-72
2022/12/31 10:42:50;;;;;;;2.40;1.80;;;;;;;17.86;100.00;100163.53;5043109;28;20182;-72
2022/12/31 10:45:50;;;;;;;3.75;1.70;;;;;;;18.01;100.00;100166.88;4961105;28;20291;-72
2022/12/31 10:48:50;;;;;;;4.20;1.65;;;;;;;18.26;100.00;100160.31;4959229;29;20205;-72
2022/12/31 10:51:41;;;;;;;3.75;1.60;;;;;;;18.19;100.00;100154.50;4960580;28;20200;-72
2022/12/31 10:54:44;;;;;;;3.47;1.80;;;;;;;18.07;100.00;100161.81;4963842;28;20232;-72
2022/12/31 10:57:46;;;;;;;3.15;2.00;;;;;;;18.18;100.00;100147.34;4963948;29;20200;-73
2022/12/31 11:00:16;;;;;;;3.92;1.80;;;;;;;18.24;100.00;100157.72;4866408;29;20266;-72
2022/12/31 11:03:04;;;;;;;2.88;1.75;;;;;;;18.20;100.00;100149.91;4850051;29;20311;-73
2022/12/31 11:06:01;;;;;;;2.50;1.77;;;;;;;18.12;100.00;100143.22;4850196;29;20228;-72
2022/12/31 11:08:49;;;;;;;4.88;2.15;;;;;;;18.24;100.00;100179.53;4848262;29;20220;-72
2022/12/31 11:11:31;;;;;;;3.97;2.15;;;;;;;18.29;100.00;100190.03;4846208;29;20213;-72
2022/12/31 11:14:12;;;;;;;2.63;1.70;;;;;;;18.17;100.00;100170.09;4845704;29;20239;-73
2022/12/31 11:16:49;;;;;;;7.90;1.77;;;;;;;18.03;100.00;100182.13;4845528;29;20240;-72
2022/12/31 11:19:21;;;;;;;2.72;1.92;;;;;;;17.60;100.00;100193.66;4844198;29;20304;-72
2022/12/31 11:22:07;;;;;;;6.35;1.80;;;;;;;17.67;100.00;100180.44;4853857;29;20203;-70
2022/12/31 11:24:54;;;;;;;2.83;2.33;;;;;;;17.57;100.00;100193.91;4899550;29;20234;-74
2022/12/31 11:27:41;;;;;;;3.58;1.40;;;;;;;17.69;100.00;100198.38;4902953;29;20267;-73
2022/12/31 11:30:19;;;;;;;2.90;2.20;;;;;;;17.75;100.00;100188.88;4912225;29;20213;-75
2022/12/31 11:32:56;;;;;;;3.13;2.10;;;;;;;17.97;100.00;100179.88;4911600;29;20208;-72
2022/12/31 11:35:31;;;;;;;3.30;1.60;;;;;;;18.02;100.00;100191.31;4911643;29;20289;-73
2022/12/31 11:38:09;;;;;;;3.53;1.48;;;;;;;18.13;100.00;100179.53;5018710;28;20558;-72
2022/12/31 11:40:53;;;;;;;4.80;1.98;;;;;;;18.46;100.00;100192.28;5049853;28;20624;-72
2022/12/31 11:43:30;;;;;;;3.50;2.05;;;;;;;18.41;100.00;100196.38;5044679;28;20205;-76
2022/12/31 11:46:29;;;;;;;3.60;2.00;;;;;;;18.40;100.00;100181.88;5043123;28;20197;-73
2022/12/31 11:49:12;;;;;;;4.72;2.20;;;;;;;18.21;100.00;100187.97;4982417;28;20193;-74
2022/12/31 11:52:09;;;;;;;3.28;1.85;;;;;;;18.37;100.00;100181.28;4982598;28;20218;-74
2022/12/31 11:54:53;;;;;;;5.22;1.90;;;;;;;18.38;100.00;100191.16;4981631;28;20231;-77
2022/12/31 11:57:27;;;;;;;2.55;1.60;;;;;;;18.27;100.00;100170.22;4981944;28;20204;-73
2022/12/31 11:59:59;;;;;;;3.15;1.60;;;;;;;18.38;100.00;100175.66;4980671;28;20274;-75
2022/12/31 12:02:28;;;;;;;5.20;1.87;;;;;;;18.58;100.00;100173.19;4980178;28;20208;-73
2022/12/31 12:04:58;;;;;;;3.25;1.88;;;;;;;18.74;100.00;100165.44;4979676;28;20463;-75
2022/12/31 12:07:25;;;;;;;3.42;2.30;;;;;;;18.90;100.00;100171.41;4981041;28;20207;-74